Hlavní strana
METAR-TAF:

METAR-TAF

Letiště :

Pitt-Greenville Airport

Greenville, Severní Karolína, Spojené státy americké

zeměpisná šířka: 35-38N, zeměpisná délka: 077-24W, výška: 8 m

Aktuální stav počasí

Zpráva byla vytvořena před 23 minutami, v 21:55 UTC
Východoseverovýchodní vítr 8 kt
Teplota 18°C
Vlhkost vzduchu 45%
Tlak 1015 hPa
Viditelnost: 16.1 km
Polojasno ve výšce 6000 ft

METAR: KPGV 042155Z AUTO 06008KT 10SM SCT060 18/06 A2998 RMK AO2

Čas: 18:18 (22:18 UTC)

Předpověď počasí

Zpráva byla vytvořena před 4 hodinami a 39 minutami, v 17:39 UTC
Předpověď platná od 04 v 18 UTC do 05 v 18 UTC
Severní vítr 10 kt s nárazy do 15 kt
Viditelnost: 10 km
Polojasno ve výšce 5000 ft
Od 04 v 2300 UTC
Severoseverovýchodní vítr 5 kt
Viditelnost: 10 km
Polojasno ve výšce 5000 ft

TAF: KPGV 041739Z 0418/0518 36010G15KT P6SM SCT050 FM042300 03005KT P6SM SCT050 AMD LTD TO CLD VIS AND WIND

Stav a předpovědi počasí z více než 4 000 letišť (zprávy METAR a TAF).

Červené a žluté tečky na mapě představují dostupné meteorologické stanice.

Když kurzor umístíte na tečku, zobrazí se název stanice.

Pak kliknutím zobrazíte stav a předpověď počasí.

Chcete-li změnit mapu, kliknutím na zelené tlačítko se znaménkem +mapu přiblížíte, kliknutím na zelené tlačítko se znaménkem – mapu oddálíte a kliknutím na zelené šipky přejdete na sousední mapy.


METAR-TAF: